createdAt,value
2023-04-10T00:04:52.255Z,17
2023-04-10T00:09:51.762Z,17
2023-04-10T00:14:51.833Z,16
2023-04-10T00:19:52.090Z,16
2023-04-10T00:24:51.843Z,16
2023-04-10T00:29:51.604Z,16
2023-04-10T00:34:52.176Z,16
2023-04-10T00:39:51.916Z,16
2023-04-10T00:44:52.008Z,16
2023-04-10T00:49:51.608Z,16
2023-04-10T00:54:52.081Z,15
2023-04-10T00:59:51.804Z,16
2023-04-10T01:04:51.653Z,16
2023-04-10T01:09:51.640Z,15
2023-04-10T01:14:51.700Z,16
2023-04-10T01:19:57.717Z,15
2023-04-10T01:24:51.608Z,15
2023-04-10T01:29:51.789Z,15
2023-04-10T01:34:53.710Z,15
2023-04-10T01:39:54.461Z,14
2023-04-10T01:44:51.852Z,14
2023-04-10T01:49:51.885Z,14
2023-04-10T01:54:51.864Z,14
2023-04-10T01:59:51.947Z,14
2023-04-10T02:04:52.219Z,13
2023-04-10T02:09:57.354Z,13
2023-04-10T02:14:52.518Z,13
2023-04-10T02:19:51.705Z,12
2023-04-10T02:24:51.693Z,12
2023-04-10T02:29:51.845Z,12
2023-04-10T02:34:51.557Z,12
2023-04-10T02:39:51.598Z,11
2023-04-10T02:44:51.462Z,11
2023-04-10T02:49:51.837Z,11
2023-04-10T02:54:51.454Z,10
2023-04-10T02:59:52.168Z,10
2023-04-10T03:04:51.854Z,10
2023-04-10T03:09:51.909Z,10
2023-04-10T03:14:51.623Z,9
2023-04-10T03:19:52.254Z,9
2023-04-10T03:24:51.494Z,9
2023-04-10T03:29:51.419Z,9
2023-04-10T03:34:51.723Z,9
2023-04-10T03:39:51.824Z,9
2023-04-10T03:44:51.911Z,8
2023-04-10T03:49:51.611Z,8
2023-04-10T03:54:51.620Z,8
2023-04-10T03:59:51.490Z,8
2023-04-10T04:04:51.792Z,8
2023-04-10T04:09:51.715Z,8
2023-04-10T04:14:51.528Z,8
2023-04-10T04:19:51.782Z,8
2023-04-10T04:24:51.793Z,8
2023-04-10T04:29:51.362Z,8
2023-04-10T04:34:51.737Z,8
2023-04-10T04:39:51.833Z,8
2023-04-10T04:44:51.434Z,8
2023-04-10T04:49:51.692Z,8
2023-04-10T04:54:51.514Z,9
2023-04-10T04:59:51.562Z,9
2023-04-10T05:04:51.443Z,9
2023-04-10T05:09:51.607Z,9
2023-04-10T05:14:51.608Z,9
2023-04-10T05:19:51.597Z,9
2023-04-10T05:24:51.665Z,9
2023-04-10T05:29:51.658Z,9
2023-04-10T05:34:51.954Z,9
2023-04-10T05:39:51.439Z,9
2023-04-10T05:44:51.685Z,9
2023-04-10T05:49:51.346Z,9
2023-04-10T05:54:51.672Z,9
2023-04-10T05:59:51.772Z,9
2023-04-10T06:04:51.783Z,9
2023-04-10T06:09:51.347Z,9
2023-04-10T06:14:51.834Z,9
2023-04-10T06:19:51.708Z,9
2023-04-10T06:24:51.697Z,10
2023-04-10T06:29:51.529Z,9
2023-04-10T06:34:51.524Z,9
2023-04-10T06:39:51.868Z,9
2023-04-10T06:44:51.450Z,9
2023-04-10T06:49:51.389Z,9
2023-04-10T06:54:51.454Z,10
2023-04-10T06:59:51.507Z,9
2023-04-10T07:04:51.515Z,9
2023-04-10T07:09:51.322Z,9
2023-04-10T07:14:51.323Z,9
2023-04-10T07:19:51.685Z,9
2023-04-10T07:24:51.344Z,10
2023-04-10T07:29:51.654Z,9
2023-04-10T07:34:51.318Z,9
2023-04-10T07:39:51.392Z,10
2023-04-10T07:44:51.548Z,10
2023-04-10T07:49:51.590Z,10
2023-04-10T07:54:51.316Z,10
2023-04-10T07:59:51.900Z,10
2023-04-10T08:04:51.620Z,10
2023-04-10T08:09:51.606Z,10
2023-04-10T08:14:51.274Z,10
2023-04-10T08:19:51.266Z,9
2023-04-10T08:24:51.477Z,9
2023-04-10T08:29:51.497Z,9
2023-04-10T08:34:51.575Z,9
2023-04-10T08:39:51.871Z,9
2023-04-10T08:44:51.764Z,9
2023-04-10T08:49:51.529Z,9
2023-04-10T08:54:53.398Z,9
2023-04-10T08:59:51.865Z,9
2023-04-10T09:04:51.699Z,9
2023-04-10T09:09:51.921Z,9
2023-04-10T09:14:51.473Z,9
2023-04-10T09:19:51.253Z,9
2023-04-10T09:24:51.711Z,9
2023-04-10T09:29:51.179Z,9
2023-04-10T09:34:51.384Z,8
2023-04-10T09:39:51.761Z,8
2023-04-10T09:44:54.179Z,8
2023-04-10T09:49:51.278Z,8
2023-04-10T09:54:51.330Z,9
2023-04-10T09:59:52.144Z,9
2023-04-10T10:04:51.496Z,8
2023-04-10T10:09:51.271Z,8
2023-04-10T10:14:53.443Z,8
2023-04-10T10:19:54.890Z,9
2023-04-10T10:24:52.187Z,8
2023-04-10T10:29:51.405Z,8
2023-04-10T10:34:51.909Z,8
2023-04-10T10:39:51.300Z,8
2023-04-10T10:44:57.647Z,8
2023-04-10T10:49:52.499Z,8
2023-04-10T10:54:59.097Z,8
2023-04-10T10:59:51.441Z,8
2023-04-10T11:04:51.404Z,8
2023-04-10T11:09:52.409Z,9
2023-04-10T11:14:51.222Z,10
2023-04-10T11:19:59.394Z,10
2023-04-10T11:24:53.674Z,11
2023-04-10T11:29:51.180Z,11
2023-04-10T11:34:51.490Z,11
2023-04-10T11:39:51.057Z,11
2023-04-10T11:44:51.368Z,11
2023-04-10T11:49:51.277Z,11
2023-04-10T11:54:51.162Z,11
2023-04-10T11:59:51.002Z,11
2023-04-10T12:04:51.211Z,11
2023-04-10T12:09:51.161Z,11
2023-04-10T12:14:51.119Z,10
2023-04-10T12:19:51.260Z,11
2023-04-10T12:24:51.147Z,11
2023-04-10T12:29:51.177Z,11
2023-04-10T12:34:52.047Z,11
2023-04-10T12:39:51.154Z,11
2023-04-10T12:44:51.003Z,11
2023-04-10T12:49:51.380Z,11
2023-04-10T12:54:51.020Z,11
2023-04-10T12:59:51.445Z,11
2023-04-10T13:04:50.999Z,10
2023-04-10T13:09:51.171Z,10
2023-04-10T13:14:51.287Z,10
2023-04-10T13:19:51.313Z,10
2023-04-10T13:24:51.299Z,10
2023-04-10T13:29:51.018Z,10
2023-04-10T13:34:51.268Z,10
2023-04-10T13:39:51.440Z,10
2023-04-10T13:44:51.281Z,11
2023-04-10T13:49:51.517Z,11
2023-04-10T13:54:51.006Z,10
2023-04-10T13:59:51.418Z,10
2023-04-10T14:04:51.057Z,10
2023-04-10T14:09:51.341Z,10
2023-04-10T14:14:51.226Z,10
2023-04-10T14:19:51.581Z,11
2023-04-10T14:24:54.355Z,10
2023-04-10T14:29:54.924Z,10
2023-04-10T14:34:51.092Z,10
2023-04-10T14:39:51.107Z,10
2023-04-10T14:44:51.251Z,10
2023-04-10T14:49:51.510Z,10
2023-04-10T14:54:51.139Z,11
2023-04-10T14:59:51.249Z,11
2023-04-10T15:04:51.023Z,11
2023-04-10T15:09:54.861Z,11
2023-04-10T15:14:51.305Z,11
2023-04-10T15:19:50.989Z,11
2023-04-10T15:24:51.271Z,11
2023-04-10T15:29:50.892Z,11
2023-04-10T15:34:51.058Z,11
2023-04-10T15:39:51.089Z,11
2023-04-10T15:44:50.835Z,11
2023-04-10T15:49:50.936Z,11
2023-04-10T15:54:50.842Z,12
2023-04-10T15:59:51.011Z,12
2023-04-10T16:04:51.125Z,12
2023-04-10T16:09:50.808Z,12
2023-04-10T16:14:50.987Z,12
2023-04-10T16:19:51.406Z,12
2023-04-10T16:24:53.539Z,12
2023-04-10T16:29:50.877Z,12
2023-04-10T16:34:51.088Z,13
2023-04-10T16:39:51.100Z,13
2023-04-10T16:44:50.983Z,13
2023-04-10T16:49:51.177Z,13
2023-04-10T16:54:51.041Z,14
2023-04-10T16:59:50.821Z,13
2023-04-10T17:04:52.945Z,13
2023-04-10T17:09:51.086Z,13
2023-04-10T17:14:51.457Z,13
2023-04-10T17:19:51.096Z,13
2023-04-10T17:24:51.064Z,12
2023-04-10T17:29:51.116Z,12
2023-04-10T17:34:51.072Z,12
2023-04-10T17:39:50.964Z,12
2023-04-10T17:44:51.204Z,13
2023-04-10T17:49:51.042Z,12
2023-04-10T17:54:50.778Z,12
2023-04-10T17:59:51.015Z,12
2023-04-10T18:04:51.366Z,12
2023-04-10T18:09:51.240Z,12
2023-04-10T18:14:51.187Z,12
2023-04-10T18:19:51.089Z,12
2023-04-10T18:24:50.859Z,11
2023-04-10T18:29:50.950Z,10
2023-04-10T18:34:50.744Z,10
2023-04-10T18:39:50.867Z,10
2023-04-10T18:44:50.662Z,9
2023-04-10T18:49:50.896Z,9
2023-04-10T18:54:51.028Z,9
2023-04-10T18:59:50.690Z,8
2023-04-10T19:04:50.793Z,8
2023-04-10T19:09:50.999Z,8
2023-04-10T19:14:51.046Z,8
2023-04-10T19:19:51.180Z,8
2023-04-10T19:24:51.227Z,8
2023-04-10T19:29:51.211Z,8
2023-04-10T19:34:50.858Z,8
2023-04-10T19:39:50.689Z,8
2023-04-10T19:44:50.873Z,8
2023-04-10T19:49:51.203Z,8
2023-04-10T19:54:50.835Z,8
2023-04-10T19:59:50.650Z,7
2023-04-10T20:04:50.770Z,7
2023-04-10T20:09:50.694Z,7
2023-04-10T20:14:50.611Z,7
2023-04-10T20:19:51.066Z,7
2023-04-10T20:24:50.677Z,7
2023-04-10T20:29:51.119Z,7
2023-04-10T20:34:50.926Z,7
2023-04-10T20:40:00.369Z,7
2023-04-10T20:45:00.352Z,6
2023-04-10T20:50:00.771Z,6
2023-04-10T20:55:00.553Z,6
2023-04-10T21:00:00.480Z,5
2023-04-10T21:05:00.491Z,6
2023-04-10T21:10:00.661Z,6
2023-04-10T21:15:00.328Z,6
2023-04-10T21:20:00.485Z,6
2023-04-10T21:25:00.541Z,5
2023-04-10T21:30:00.268Z,5
2023-04-10T21:35:00.536Z,5
2023-04-10T21:40:00.385Z,5
2023-04-10T21:45:00.366Z,5
2023-04-10T21:50:00.342Z,5
2023-04-10T21:55:00.591Z,5
2023-04-10T22:00:01.369Z,5
2023-04-10T22:05:00.303Z,4
2023-04-10T22:10:00.738Z,4
2023-04-10T22:15:00.416Z,4
2023-04-10T22:20:01.229Z,4
2023-04-10T22:25:00.231Z,3
2023-04-10T22:30:03.941Z,3
2023-04-10T22:35:00.351Z,3
2023-04-10T22:40:00.473Z,3
2023-04-10T22:45:00.372Z,3
2023-04-10T22:50:00.547Z,2
2023-04-10T22:55:00.362Z,2
2023-04-10T23:00:01.029Z,2
2023-04-10T23:05:00.148Z,2
2023-04-10T23:10:00.335Z,2
2023-04-10T23:15:00.390Z,2
2023-04-10T23:20:00.838Z,1
2023-04-10T23:25:00.195Z,1
2023-04-10T23:30:00.366Z,1
2023-04-10T23:35:00.593Z,2
2023-04-10T23:40:00.544Z,2
2023-04-10T23:45:00.388Z,2
2023-04-10T23:50:00.776Z,1
2023-04-10T23:55:00.626Z,2
